Timeline UpdatesTrip UpdatesNews PostsPvt PostsTravel TipsAdmin PostsConv PostsFollowed PostsChat RequestsBlog PostsPNR Posts

Disclaimer
Search
 
 
Fri Apr 25, 2014 04:08:32 ISTHomeTrainsΣChainsAtlasPNRForumGalleryNewsFAQTripsMembersLoginFeedback
No Recent News for this Train
Other Trains in the News **new
Latest...
.
Tue Sep 17, 2013 (05:07PM)
⇐ Return Journey: Train# 37927

37926/Katwa-Howrah Local

Sep 17 2013 (5:06PM)
Change Departure Station:
Change Arrival Station:
Post a Train Travel TipPost a Train Travel Tip **new
Post a Comment/Question/Picture/VideoPost a Comment/Question/Picture/Video
Pantry/Catering
✕ NO Pantry Car
✕ NO Catering
RSA - Rake Sharing
Rake/Coach Composition
Loco
News    PNR    Forum    Time-Table    Availability    Fare Chart    Map    Arr/Dep History    Trips    Gallery    ΣChains    X/O    Timeline    
Travel Time: 2h 43m    30 halts    Distance: 97 km    Avg Speed: 35 km/hr
Type: EMU - Kolkata
Zone: ER/Eastern
Departs @ 16:05 (Avg 26m late)
Platform# ???
SMTWTFS
Samudra Garh/SMAE 
Arrives @ 18:48 (Avg 8m late)
Platform# ???
SMTWTFS
Kolkata Howrah Junction/HWH 

30 halts. 32 intermediate Stations between Samudra Garh and Kolkata Howrah Junction

Hide intermediate Stations  Show Old Time-Table

#CodeStation NameX/OArrivesAvgDepartsAvgHaltPFDay#KmSpeedElevZoneAddress
1KWAEKatwa Junction (5)  -15:00+5--1-47.46821mERDist - Bardhaman, West Bengal
2DHAEDainhat (4)  15:06+915:07+111m--1-40.610219mERDaihaat Rd, West Bengal
3SHBASahebtala  15:09+1515:10+151m--1-37.21918mERSahebtala, West Bengal
4AGAEAgradwip (2)  15:19+1015:20+121m--1-34.49818mERDist - Bardhaman, West Bengal
5PTAEPatuli (2)  15:23+1415:24+141m--1-29.57518mERDist - bardhaman, West Bengal
6BQYBelerhat  15:28+1515:29+151m--1-24.58219mERJajneswarpur, West Bengal
7LKXLakshmipur (2)  15:31+1515:32+161m--1-21.89414mERDist - burdhaman, West Bengal
8MTFAMertala Phaleya  15:34+1815:35+181m--1-18.69216mERMertala Phaleya, West Bengal
9PSAEPurbasthali (2)  15:37+1815:38+191m--1-15.67019mERDist - Bardhaman, West Bengal
10BFZBhandartikuri  15:40+2015:41+231m--1-13.210321mERDist - Bardhaman, West Bengal
11VSPRBishnupriya (1)  15:43-15:44-1m--1-9.83015mERDist - nadia, West Bengal
12NDAENabadwip Dham (3)  15:48+2215:50+242m--1-7.82515mERDist - Nadia, West Bengal
13KLNTKalinagar (1)  16:00+2016:01+221m11-3.7749mERDist - Nadia, West Bengal
14SMAE»Samudra Garh»  16:04+2416:05+261m--10.07316mERDist - Bardhaman, West Bengal
15NDIMNandaigram Halt  16:08-16:09-1m--13.61014mERState Highway 6, West Bengal
16DTAEDhatrigram  16:28+1216:29+131m--16.79116mERDhatrigram, West Bengal
17BGRABaghnapara (2)  16:32+1516:33+161m--111.34916mERKalna-Memari Rd, West Bengal
18ABKAAmbika Kalna (4)  16:38+1716:39+171m--115.48512mERKalna, West Bengal
19GPAEGuptipara  16:44+1816:45+181m--122.56314mERGuptipara Railway Station, West Bengal
20BHLABehula  16:47+1816:48+181m--124.67316mERDist - Hooghly, West Bengal
21SOAESomra Bazar (2)  16:52+1816:53+181m--129.58613mERState Highway 6, West Bengal
22BGAEBalagarh  16:55+1716:56+171m--132.31913mERBalagarh, West Bengal
23JITJirat (3)  17:03+1617:04+161m--134.512617mERdist - hooghly, West Bengal
24KMAEKhamargachhi  17:07+1917:08+191m--140.85914mERKhamargachi, West Bengal
25DMLEDumurdaha  17:10+1917:11+191m--142.89815mERDumurdahadham, West Bengal
26KJUKuntighat  17:13+2117:14+211m--146.16717mERKuntighat Railway Station, West Bengal
27TBAETribeni  17:17+2017:18+201m--149.47416mERTribeni, West Bengal
28BSAEBansh Baria  17:21+2217:22+221m--153.11413mERBansberia, West Bengal
29BDCBandel Junction (7)  17:41+1117:43+132m--157.611814mERdist - HOOGHLY, West Bengal
30HGYHooghly (3)  17:44+1417:45+141m--159.55414mERDist - Hooghly, West Bengal
31CNSChuchura (3)  17:47+1517:48+151m--161.39015mERDist - HOOGHLY - 712102, West Bengal
32CGRChandan Nagar (3)  17:50+1517:51+151m--164.37116mERDist -HOOGHLY - 712136, West Bengal
33MUUMankundu (3)  17:53+1517:54+151m--166.713313mERChandannagar, West Bengal
34BHRBhadreshwar (3)  17:55+1517:56+151m--168.95614mERBhadreswar, West Bengal
35BBAEBaidyabati (3)  18:00+1418:01+141m--172.62813mERBaidyabati, West Bengal
36SHESeoraphuli Junction (6)  18:06+1418:07+141m--174.97613mERBaidyabati, West Bengal
37SRPSerampore (4)  18:09+1418:10+141m--177.56411mERdist - hooghly, West Bengal
38RISRishra (3)  18:13+1418:14+141m--180.74211mERRishra, West Bengal
39KOGKonnagar (3)  18:18+1318:19+141m--183.511510mERDist: Howrah, West Bengal
40HMZHind Motor (3)  18:20+1418:21+141m--185.4549mERHindmotor, West Bengal
41UPAUttarpara (3)  18:23+1318:24+141m--187.2749mERDist - Hooghly, West Bengal
42BLYBally (6)  18:25+1318:26+131m--188.51218mERDist - Howrah, West Bengal
43BEQBelur (5)  18:27+1318:28+131m--190.5508mERHowrah, West Bengal
44LLHLiluah (5)  18:30+1318:31+131m--192.11610mERHowrah, West Bengal
44.1SYAELiluah Sorting  18:36-18:36-  193.4 165mERLiluah Sorting, West Bengal
44.2HWHGHowrah Goods Cabin  18:44-18:44-  195.7 166mERHowrah, West Bengal
45HWH•Kolkata Howrah Junction (23)•  18:48+8---196.7-10mERHowrah 711101, West Bengal
Scroll to Top
Scroll to Bottom